createdAt,value
2018-05-25T00:00:48.799Z,42.84
2018-05-25T00:01:48.499Z,42.63
2018-05-25T00:02:48.784Z,42.65
2018-05-25T00:03:48.547Z,42.74
2018-05-25T00:04:48.850Z,42.65
2018-05-25T00:05:48.856Z,42.74
2018-05-25T00:06:48.610Z,42.63
2018-05-25T00:07:48.898Z,43.03
2018-05-25T00:08:48.922Z,43.01
2018-05-25T00:09:48.955Z,42.74
2018-05-25T00:10:48.702Z,42.82
2018-05-25T00:11:48.991Z,42.82
2018-05-25T00:12:49.034Z,42.72
2018-05-25T00:13:49.033Z,42.72
2018-05-25T00:14:49.057Z,42.82
2018-05-25T00:15:49.094Z,42.82
2018-05-25T00:16:49.104Z,42.63
2018-05-25T00:17:48.867Z,42.82
2018-05-25T00:18:49.145Z,42.72
2018-05-25T00:19:48.902Z,42.82
2018-05-25T00:20:48.929Z,42.82
2018-05-25T00:21:49.228Z,42.91
2018-05-25T00:22:55.385Z,42.72
2018-05-25T00:23:49.277Z,42.82
2018-05-25T00:24:49.382Z,42.72
2018-05-25T00:25:49.323Z,43.2
2018-05-25T00:26:49.059Z,43.2
2018-05-25T00:27:49.365Z,43.11
2018-05-25T00:28:49.375Z,43.3
2018-05-25T00:29:49.126Z,43.2
2018-05-25T00:30:49.434Z,43.3
2018-05-25T00:31:49.446Z,43.01
2018-05-25T00:32:49.472Z,43.4
2018-05-25T00:33:49.479Z,43.01
2018-05-25T00:34:49.511Z,43.3
2018-05-25T00:35:49.265Z,43.3
2018-05-25T00:36:49.556Z,43.3
2018-05-25T00:37:49.572Z,43.2
2018-05-25T00:38:49.610Z,43.2
2018-05-25T00:39:49.621Z,43.3
2018-05-25T00:40:49.654Z,43.3
2018-05-25T00:41:49.663Z,43.2
2018-05-25T00:42:49.703Z,43.01
2018-05-25T00:43:49.714Z,42.91
2018-05-25T00:44:49.737Z,43.2
2018-05-25T00:45:49.777Z,43.2
2018-05-25T00:46:49.508Z,43.49
2018-05-25T00:47:49.818Z,43.3
2018-05-25T00:48:49.827Z,42.82
2018-05-25T00:49:49.857Z,43.2
2018-05-25T00:50:49.625Z,43.11
2018-05-25T00:51:49.621Z,43.49
2018-05-25T00:52:49.927Z,43.68
2018-05-25T00:53:49.944Z,43.4
2018-05-25T00:54:49.965Z,43.49
2018-05-25T00:55:49.988Z,43.59
2018-05-25T00:56:49.737Z,43.3
2018-05-25T00:57:50.032Z,43.01
2018-05-25T00:58:50.064Z,43.2
2018-05-25T00:59:49.798Z,43.68
2018-05-25T01:00:50.110Z,43.11
2018-05-25T01:01:50.116Z,43.59
2018-05-25T01:02:49.878Z,43.49
2018-05-25T01:03:50.178Z,43.68
2018-05-25T01:04:50.178Z,43.49
2018-05-25T01:05:50.220Z,43.3
2018-05-25T01:06:50.230Z,43.49
2018-05-25T01:07:50.250Z,43.49
2018-05-25T01:08:50.286Z,43.3
2018-05-25T01:09:50.035Z,43.3
2018-05-25T01:10:50.324Z,43.49
2018-05-25T01:11:50.340Z,43.3
2018-05-25T01:12:50.361Z,43.49
2018-05-25T01:13:50.400Z,43.59
2018-05-25T01:14:50.413Z,43.47
2018-05-25T01:15:50.431Z,43.57
2018-05-25T01:16:50.455Z,43.57
2018-05-25T01:17:50.476Z,43.66
2018-05-25T01:18:50.507Z,43.4
2018-05-25T01:19:50.532Z,43.47
2018-05-25T01:20:50.542Z,43.37
2018-05-25T01:21:50.570Z,43.88
2018-05-25T01:22:50.589Z,43.85
2018-05-25T01:23:50.602Z,43.78
2018-05-25T01:24:50.641Z,43.66
2018-05-25T01:25:50.670Z,43.85
2018-05-25T01:26:50.694Z,43.97
2018-05-25T01:27:50.698Z,43.66
2018-05-25T01:28:50.718Z,43.57
2018-05-25T01:29:50.760Z,43.76
2018-05-25T01:30:50.782Z,43.95
2018-05-25T01:31:50.789Z,43.76
2018-05-25T01:32:50.825Z,43.49
2018-05-25T01:33:50.828Z,43.95
2018-05-25T01:34:50.586Z,43.66
2018-05-25T01:35:50.899Z,43.57
2018-05-25T01:36:50.908Z,43.76
2018-05-25T01:37:50.923Z,43.66
2018-05-25T01:38:50.673Z,43.85
2018-05-25T01:39:50.968Z,43.66
2018-05-25T01:40:51.005Z,43.66
2018-05-25T01:41:51.007Z,43.57
2018-05-25T01:42:51.041Z,43.66
2018-05-25T01:43:51.049Z,43.57
2018-05-25T01:44:50.812Z,43.76
2018-05-25T01:45:51.114Z,44.05
2018-05-25T01:46:51.115Z,44.14
2018-05-25T01:47:50.876Z,43.85
2018-05-25T01:48:50.892Z,44.34
2018-05-25T01:49:50.925Z,44.24
2018-05-25T01:50:51.214Z,44.43
2018-05-25T01:51:51.244Z,44.43
2018-05-25T01:52:51.256Z,44.34
2018-05-25T01:53:51.298Z,44.34
2018-05-25T01:54:51.312Z,44.24
2018-05-25T01:55:51.312Z,44.34
2018-05-25T01:56:51.351Z,44.53
2018-05-25T01:57:51.110Z,44.53
2018-05-25T01:58:51.114Z,44.34
2018-05-25T01:59:51.426Z,44.53
2018-05-25T02:00:51.430Z,44.53
2018-05-25T02:01:51.455Z,44.53
2018-05-25T02:02:51.471Z,44.62
2018-05-25T02:03:51.517Z,44.53
2018-05-25T02:04:51.532Z,44.6
2018-05-25T02:05:51.276Z,44.53
2018-05-25T02:06:51.303Z,44.72
2018-05-25T02:07:51.607Z,44.91
2018-05-25T02:08:51.624Z,44.53
2018-05-25T02:09:51.633Z,44.7
2018-05-25T02:10:51.668Z,44.51
2018-05-25T02:11:51.725Z,44.79
2018-05-25T02:12:51.694Z,44.7
2018-05-25T02:13:51.450Z,44.7
2018-05-25T02:14:51.738Z,44.6
2018-05-25T02:15:51.772Z,44.79
2018-05-25T02:16:51.799Z,44.89
2018-05-25T02:17:51.826Z,44.79
2018-05-25T02:18:51.848Z,44.51
2018-05-25T02:19:51.865Z,44.89
2018-05-25T02:20:51.884Z,44.7
2018-05-25T02:21:51.910Z,44.99
2018-05-25T02:22:51.660Z,44.89
2018-05-25T02:23:51.675Z,44.89
2018-05-25T02:24:51.966Z,45.08
2018-05-25T02:25:52.010Z,45.18
2018-05-25T02:26:51.999Z,45.18
2018-05-25T02:27:52.030Z,45.28
2018-05-25T02:28:52.064Z,45.18
2018-05-25T02:29:52.069Z,44.99
2018-05-25T02:30:52.084Z,45.18
2018-05-25T02:31:52.130Z,45.08
2018-05-25T02:32:52.160Z,45.28
2018-05-25T02:33:52.181Z,44.99
2018-05-25T02:34:51.922Z,45.18
2018-05-25T02:35:52.204Z,45.28
2018-05-25T02:36:52.245Z,45.18
2018-05-25T02:37:52.257Z,45.37
2018-05-25T02:38:52.289Z,45.18
2018-05-25T02:39:52.298Z,45.47
2018-05-25T02:40:52.344Z,45.28
2018-05-25T02:41:52.070Z,45.28
2018-05-25T02:42:52.373Z,45.18
2018-05-25T02:43:52.373Z,45.47
2018-05-25T02:44:52.407Z,45.47
2018-05-25T02:45:52.431Z,45.47
2018-05-25T02:46:52.176Z,45.56
2018-05-25T02:47:52.479Z,45.56
2018-05-25T02:48:52.212Z,45.76
2018-05-25T02:49:52.249Z,45.66
2018-05-25T02:50:52.534Z,45.56
2018-05-25T02:51:52.567Z,45.85
2018-05-25T02:52:52.305Z,45.56
2018-05-25T02:53:52.606Z,45.85
2018-05-25T02:54:52.614Z,45.85
2018-05-25T02:55:52.640Z,45.85
2018-05-25T02:56:52.661Z,45.92
2018-05-25T02:57:52.694Z,45.95
2018-05-25T02:58:52.702Z,45.95
2018-05-25T02:59:52.747Z,45.92
2018-05-25T03:00:52.748Z,46.12
2018-05-25T03:01:52.501Z,46.04
2018-05-25T03:02:52.793Z,45.85
2018-05-25T03:03:52.829Z,45.95
2018-05-25T03:04:52.853Z,46.21
2018-05-25T03:05:52.862Z,46.02
2018-05-25T03:06:52.893Z,46.21
2018-05-25T03:07:52.947Z,46.21
2018-05-25T03:08:52.923Z,46.23
2018-05-25T03:09:52.678Z,45.95
2018-05-25T03:10:52.964Z,46.21
2018-05-25T03:11:52.988Z,46.02
2018-05-25T03:12:53.006Z,46.21
2018-05-25T03:13:53.034Z,46.12
2018-05-25T03:14:53.072Z,46.59
2018-05-25T03:15:53.067Z,46.02
2018-05-25T03:16:53.131Z,46.31
2018-05-25T03:17:53.179Z,46.41
2018-05-25T03:18:53.149Z,46.31
2018-05-25T03:19:53.183Z,46.31
2018-05-25T03:20:53.184Z,46.31
2018-05-25T03:21:53.205Z,46.41
2018-05-25T03:22:53.238Z,46.31
2018-05-25T03:23:52.976Z,46.21
2018-05-25T03:24:53.269Z,46.5
2018-05-25T03:25:53.295Z,46.41
2018-05-25T03:26:53.333Z,46.31
2018-05-25T03:27:53.333Z,46.31
2018-05-25T03:28:53.353Z,46.5
2018-05-25T03:29:53.380Z,46.5
2018-05-25T03:30:53.402Z,46.5
2018-05-25T03:31:53.154Z,46.21
2018-05-25T03:32:53.449Z,46.21
2018-05-25T03:33:53.478Z,46.5
2018-05-25T03:34:53.497Z,46.5
2018-05-25T03:35:53.523Z,46.98
2018-05-25T03:36:53.539Z,46.41
2018-05-25T03:37:53.565Z,46.89
2018-05-25T03:38:53.610Z,46.79
2018-05-25T03:39:53.610Z,46.69
2018-05-25T03:40:53.631Z,46.69
2018-05-25T03:41:53.639Z,46.79
2018-05-25T03:42:53.655Z,46.79
2018-05-25T03:43:53.694Z,46.98
2018-05-25T03:44:53.702Z,46.89
2018-05-25T03:45:53.717Z,46.89
2018-05-25T03:46:53.475Z,46.89
2018-05-25T03:47:53.757Z,46.79
2018-05-25T03:48:53.778Z,46.5
2018-05-25T03:49:53.825Z,46.98
2018-05-25T03:50:53.839Z,46.98
2018-05-25T03:51:53.909Z,46.98
2018-05-25T03:52:53.610Z,46.98
2018-05-25T03:53:53.897Z,46.69
2018-05-25T03:54:53.938Z,46.59
2018-05-25T03:55:53.674Z,46.89
2018-05-25T03:56:53.957Z,46.89
2018-05-25T03:57:53.983Z,46.98
2018-05-25T03:58:53.744Z,47.17
2018-05-25T03:59:54.043Z,47.08
2018-05-25T04:00:54.043Z,46.79
2018-05-25T04:01:54.067Z,47.08
2018-05-25T04:02:54.105Z,47.46
2018-05-25T04:03:54.112Z,47.46
2018-05-25T04:04:54.125Z,47.17
2018-05-25T04:05:53.891Z,47.08
2018-05-25T04:06:54.185Z,47.17
2018-05-25T04:07:54.214Z,47.27
2018-05-25T04:08:54.243Z,47.27
2018-05-25T04:09:54.246Z,47.27
2018-05-25T04:10:54.259Z,47.08
2018-05-25T04:11:54.297Z,47.08
2018-05-25T04:12:54.042Z,46.79
2018-05-25T04:13:54.347Z,47.46
2018-05-25T04:14:54.361Z,47.46
2018-05-25T04:15:54.370Z,47.46
2018-05-25T04:16:54.401Z,47.46
2018-05-25T04:17:54.430Z,47.46
2018-05-25T04:18:54.432Z,47.27
2018-05-25T04:19:54.454Z,47.27
2018-05-25T04:20:54.218Z,47.17
2018-05-25T04:21:54.510Z,47.36
2018-05-25T04:22:54.537Z,47.08
2018-05-25T04:23:54.674Z,47.17
2018-05-25T04:24:54.580Z,47.46
2018-05-25T04:25:54.318Z,47.56
2018-05-25T04:26:54.339Z,47.46
2018-05-25T04:27:54.544Z,47.56
2018-05-25T04:28:54.650Z,47.56
2018-05-25T04:29:54.685Z,47.56
2018-05-25T04:30:54.693Z,47.56
2018-05-25T04:31:54.456Z,47.36
2018-05-25T04:32:54.740Z,47.27
2018-05-25T04:33:54.812Z,47.36
2018-05-25T04:34:54.509Z,47.46
2018-05-25T04:35:54.804Z,47.27
2018-05-25T04:36:54.558Z,47.56
2018-05-25T04:37:54.837Z,47.56
2018-05-25T04:38:54.648Z,47.36
2018-05-25T04:39:54.891Z,47.27
2018-05-25T04:40:54.640Z,47.27
2018-05-25T04:41:54.941Z,47.36
2018-05-25T04:42:54.965Z,46.98
2018-05-25T04:43:54.979Z,47.36
2018-05-25T04:44:55.009Z,47.75
2018-05-25T04:45:55.013Z,47.17
2018-05-25T04:46:55.048Z,47.56
2018-05-25T04:47:55.058Z,47.49
2018-05-25T04:48:55.078Z,47.46
2018-05-25T04:49:55.110Z,47.27
2018-05-25T04:50:55.123Z,47.27
2018-05-25T04:51:55.142Z,47.68
2018-05-25T04:52:55.162Z,47.58
2018-05-25T04:53:55.203Z,47.49
2018-05-25T04:54:55.211Z,47.46
2018-05-25T04:55:55.237Z,47.56
2018-05-25T04:56:55.267Z,47.58
2018-05-25T04:57:55.264Z,47.36
2018-05-25T04:58:55.061Z,46.91
2018-05-25T04:59:55.338Z,47.3
2018-05-25T05:00:55.354Z,47.39
2018-05-25T05:01:55.356Z,47.46
2018-05-25T05:02:55.380Z,47.3
2018-05-25T05:03:55.414Z,47.2
2018-05-25T05:04:55.476Z,47.3
2018-05-25T05:05:55.440Z,47.77
2018-05-25T05:06:55.480Z,47.39
2018-05-25T05:07:55.487Z,47.77
2018-05-25T05:08:55.556Z,47.56
2018-05-25T05:09:55.259Z,47.77
2018-05-25T05:10:55.567Z,47.77
2018-05-25T05:11:55.301Z,47.49
2018-05-25T05:12:55.597Z,47.58
2018-05-25T05:13:55.347Z,47.39
2018-05-25T05:14:55.378Z,47.49
2018-05-25T05:15:55.655Z,47.58
2018-05-25T05:16:55.677Z,47.3
2018-05-25T05:17:55.711Z,47.3
2018-05-25T05:18:55.728Z,46.91
2018-05-25T05:19:55.624Z,47.1
2018-05-25T05:20:55.990Z,47.2
2018-05-25T05:21:55.800Z,47.2
2018-05-25T05:22:55.544Z,47.3
2018-05-25T05:23:55.566Z,47.3
2018-05-25T05:24:55.864Z,47.2
2018-05-25T05:25:55.874Z,47.3
2018-05-25T05:26:55.888Z,47.2
2018-05-25T05:27:55.929Z,47.3
2018-05-25T05:28:55.953Z,47.39
2018-05-25T05:29:55.977Z,47.2
2018-05-25T05:30:56.005Z,47.03
2018-05-25T05:31:56.028Z,47.2
2018-05-25T05:32:56.021Z,47.2
2018-05-25T05:33:56.060Z,47.3
2018-05-25T05:34:56.068Z,47.13
2018-05-25T05:35:56.093Z,47.31
2018-05-25T05:36:56.120Z,47.41
2018-05-25T05:37:55.876Z,47.13
2018-05-25T05:38:56.155Z,47.31
2018-05-25T05:39:56.187Z,47.8
2018-05-25T05:40:56.289Z,47.8
2018-05-25T05:41:56.229Z,47.8
2018-05-25T05:42:56.239Z,47.8
2018-05-25T05:43:55.988Z,48.28
2018-05-25T05:44:56.291Z,48.18
2018-05-25T05:45:56.046Z,47.99
2018-05-25T05:46:56.328Z,47.61
2018-05-25T05:47:56.092Z,47.89
2018-05-25T05:48:56.368Z,47.89
2018-05-25T05:49:56.400Z,47.89
2018-05-25T05:50:56.566Z,47.61
2018-05-25T05:51:56.454Z,47.22
2018-05-25T05:52:56.475Z,47.8
2018-05-25T05:53:56.493Z,47.8
2018-05-25T05:54:56.517Z,47.61
2018-05-25T05:55:56.262Z,47.13
2018-05-25T05:56:56.549Z,47.34
2018-05-25T05:57:56.569Z,47.61
2018-05-25T05:58:56.323Z,47.24
2018-05-25T05:59:56.342Z,47.51
2018-05-25T06:00:56.645Z,47.05
2018-05-25T06:01:56.663Z,47.44
2018-05-25T06:02:56.675Z,47.24
2018-05-25T06:03:56.447Z,47.05
2018-05-25T06:04:56.459Z,46.86
2018-05-25T06:05:56.764Z,46.95
2018-05-25T06:06:56.763Z,47.05
2018-05-25T06:07:56.790Z,46.86
2018-05-25T06:08:56.822Z,46.95
2018-05-25T06:09:56.847Z,47.05
2018-05-25T06:10:56.870Z,46.95
2018-05-25T06:11:56.874Z,46.86
2018-05-25T06:12:56.902Z,47.05
2018-05-25T06:13:56.921Z,47.05
2018-05-25T06:14:56.942Z,46.47
2018-05-25T06:15:57.373Z,46.86
2018-05-25T06:16:57.067Z,46.57
2018-05-25T06:17:56.829Z,46.47
2018-05-25T06:18:56.964Z,46.4
2018-05-25T06:19:56.979Z,46.31
2018-05-25T06:20:57.068Z,46.4
2018-05-25T06:21:57.114Z,46.31
2018-05-25T06:22:57.126Z,46.31
2018-05-25T06:23:57.135Z,46.69
2018-05-25T06:24:57.227Z,46.31
2018-05-25T06:25:57.198Z,46.4
2018-05-25T06:26:57.205Z,46.21
2018-05-25T06:27:57.289Z,46.11
2018-05-25T06:28:57.251Z,46.11
2018-05-25T06:29:57.292Z,46.59
2018-05-25T06:30:57.299Z,46.21
2018-05-25T06:31:57.333Z,46.23
2018-05-25T06:32:57.388Z,46.04
2018-05-25T06:33:57.106Z,46.04
2018-05-25T06:34:57.116Z,45.94
2018-05-25T06:35:57.411Z,45.94
2018-05-25T06:36:57.445Z,45.65
2018-05-25T06:37:57.470Z,45.46
2018-05-25T06:38:57.488Z,45.56
2018-05-25T06:39:57.222Z,45.36
2018-05-25T06:40:57.540Z,45.36
2018-05-25T06:41:57.537Z,45.36
2018-05-25T06:42:57.553Z,45.36
2018-05-25T06:43:57.590Z,45.39
2018-05-25T06:44:57.619Z,45.17
2018-05-25T06:45:57.628Z,45.1
2018-05-25T06:46:57.673Z,45.29
2018-05-25T06:47:57.417Z,45.2
2018-05-25T06:48:57.715Z,45.39
2018-05-25T06:49:57.766Z,45.36
2018-05-25T06:50:57.743Z,45.39
2018-05-25T06:51:57.494Z,45.29
2018-05-25T06:52:57.520Z,45.27
2018-05-25T06:53:57.547Z,45.48
2018-05-25T06:54:57.840Z,45.48
2018-05-25T06:55:57.850Z,45.2
2018-05-25T06:56:57.643Z,45.1
2018-05-25T06:57:57.668Z,45.1
2018-05-25T06:58:57.660Z,45
2018-05-25T06:59:57.955Z,45
2018-05-25T07:00:57.967Z,45.1
2018-05-25T07:01:57.984Z,45.1
2018-05-25T07:02:58.007Z,45.48
2018-05-25T07:03:58.079Z,45.39
2018-05-25T07:04:57.788Z,45.58
2018-05-25T07:05:58.091Z,45.39
2018-05-25T07:06:58.102Z,45.48
2018-05-25T07:07:58.133Z,45.48
2018-05-25T07:08:58.156Z,45.29
2018-05-25T07:09:57.893Z,45.29
2018-05-25T07:10:57.922Z,45.51
2018-05-25T07:11:57.948Z,45.51
2018-05-25T07:12:58.236Z,45.41
2018-05-25T07:13:58.264Z,45.41
2018-05-25T07:14:58.334Z,45.41
2018-05-25T07:15:58.317Z,45.51
2018-05-25T07:16:58.400Z,45.6
2018-05-25T07:17:58.352Z,45.41
2018-05-25T07:18:58.390Z,45.6
2018-05-25T07:19:58.403Z,45.6
2018-05-25T07:20:58.422Z,45.43
2018-05-25T07:21:58.182Z,45.43
2018-05-25T07:22:58.481Z,45.34
2018-05-25T07:23:58.503Z,45.43
2018-05-25T07:24:58.251Z,45.43
2018-05-25T07:25:58.523Z,45.43
2018-05-25T07:26:58.281Z,45.07
2018-05-25T07:27:58.584Z,45.04
2018-05-25T07:28:58.334Z,45.14
2018-05-25T07:29:58.622Z,44.97
2018-05-25T07:30:58.654Z,44.85
2018-05-25T07:31:58.401Z,44.87
2018-05-25T07:32:58.704Z,44.59
2018-05-25T07:33:58.728Z,44.59
2018-05-25T07:34:58.737Z,44.49
2018-05-25T07:35:58.487Z,44.39
2018-05-25T07:36:58.788Z,44.39
2018-05-25T07:37:58.823Z,44.32
2018-05-25T07:38:58.831Z,44.51
2018-05-25T07:39:58.867Z,44.22
2018-05-25T07:40:58.872Z,43.84
2018-05-25T07:41:58.891Z,43.93
2018-05-25T07:42:58.664Z,43.93
2018-05-25T07:43:58.954Z,43.93
2018-05-25T07:44:58.696Z,43.93
2018-05-25T07:45:59.011Z,43.66
2018-05-25T07:46:59.013Z,43.28
2018-05-25T07:47:59.065Z,43.47
2018-05-25T07:48:58.804Z,43.57
2018-05-25T07:49:59.132Z,43.57
2018-05-25T07:50:59.103Z,43.47
2018-05-25T07:51:59.145Z,43.47
2018-05-25T07:52:59.175Z,43.18
2018-05-25T07:53:59.199Z,42.82
2018-05-25T07:54:59.253Z,42.89
2018-05-25T07:55:59.231Z,43.01
2018-05-25T07:56:59.262Z,43.2
2018-05-25T07:57:59.264Z,42.91
2018-05-25T07:58:59.289Z,42.52
2018-05-25T07:59:59.381Z,42.43
2018-05-25T08:00:59.343Z,42.43
2018-05-25T08:01:59.362Z,42.65
2018-05-25T08:02:59.117Z,42.74
2018-05-25T08:03:59.155Z,42.45
2018-05-25T08:04:59.165Z,42.45
2018-05-25T08:05:59.468Z,42.45
2018-05-25T08:06:59.507Z,42.65
2018-05-25T08:07:59.502Z,42.45
2018-05-25T08:08:59.537Z,42.37
2018-05-25T08:09:59.577Z,41.77
2018-05-25T08:10:59.577Z,41.99
2018-05-25T08:11:59.650Z,41.99
2018-05-25T08:12:59.644Z,41.89
2018-05-25T08:13:59.382Z,41.5
2018-05-25T08:14:59.680Z,41.31
2018-05-25T08:15:59.724Z,41.41
2018-05-25T08:16:59.726Z,41.52
2018-05-25T08:17:59.478Z,41.52
2018-05-25T08:18:59.767Z,41.24
2018-05-25T08:19:59.809Z,41.42
2018-05-25T08:22:45.372Z,41.06
2018-05-25T08:23:45.354Z,40.96
2018-05-25T08:24:45.396Z,40.58
2018-05-25T08:25:45.419Z,40.38
2018-05-25T08:26:45.444Z,40.11
2018-05-25T08:27:45.188Z,40.31
2018-05-25T08:28:45.484Z,39.82
2018-05-25T08:29:45.519Z,39.82
2018-05-25T08:30:45.533Z,39.45
2018-05-25T08:31:45.560Z,39.36
2018-05-25T08:32:45.573Z,38.96
2018-05-25T08:33:45.349Z,38.87
2018-05-25T08:34:45.641Z,38.78
2018-05-25T08:35:45.664Z,38.78
2018-05-25T08:36:45.690Z,38.7
2018-05-25T08:37:45.699Z,38.79
2018-05-25T08:38:45.719Z,38.31
2018-05-25T08:39:45.745Z,38.21
2018-05-25T08:40:45.800Z,37.34
2018-05-25T08:41:45.536Z,37.94
2018-05-25T08:42:45.835Z,37.55
2018-05-25T08:43:45.874Z,37.35
2018-05-25T08:44:45.890Z,36.87
2018-05-25T08:45:45.910Z,36.79
2018-05-25T08:46:45.935Z,36.97
2018-05-25T08:47:45.967Z,37.18
2018-05-25T08:48:45.992Z,37.18
2018-05-25T08:49:46.023Z,36.99
2018-05-25T08:50:46.053Z,36.79
2018-05-25T08:51:46.049Z,36.99
2018-05-25T08:52:45.807Z,36.79
2018-05-25T08:53:45.839Z,36.91
2018-05-25T08:54:46.120Z,36.71
2018-05-25T08:55:45.888Z,36.61
2018-05-25T08:56:45.915Z,36.71
2018-05-25T08:57:46.218Z,36.24
2018-05-25T08:58:46.250Z,36.24
2018-05-25T08:59:46.254Z,35.76
2018-05-25T09:00:46.287Z,35.39
2018-05-25T09:01:46.309Z,34.9
2018-05-25T09:02:46.329Z,34.42
2018-05-25T09:03:46.356Z,34.7
2018-05-25T09:04:46.105Z,34.32
2018-05-25T09:05:46.417Z,34.32
2018-05-25T09:06:46.514Z,34.32
2018-05-25T09:07:46.473Z,34.53
2018-05-25T09:08:46.486Z,34.43
2018-05-25T09:09:46.524Z,33.95
2018-05-25T09:10:46.539Z,34.14
2018-05-25T09:11:46.289Z,33.96
2018-05-25T09:12:46.602Z,33.77
2018-05-25T09:13:46.626Z,33.77
2018-05-25T09:14:46.368Z,33.77
2018-05-25T09:15:46.668Z,33.28
2018-05-25T09:16:46.690Z,33.39
2018-05-25T09:17:46.722Z,33.11
2018-05-25T09:18:46.737Z,32.52
2018-05-25T09:19:46.773Z,32.91
2018-05-25T09:20:46.802Z,32.82
2018-05-25T09:21:47.000Z,32.34
2018-05-25T09:22:46.848Z,32.15
2018-05-25T09:23:46.898Z,32.24
2018-05-25T09:24:46.913Z,31.76
2018-05-25T09:25:46.961Z,31.67
2018-05-25T09:26:46.678Z,32.06
2018-05-25T09:27:46.713Z,32.26
2018-05-25T09:28:46.739Z,31.67
2018-05-25T09:29:47.038Z,31.4
2018-05-25T09:30:47.109Z,31.01
2018-05-25T09:31:47.083Z,31.01
2018-05-25T09:32:47.104Z,30.52
2018-05-25T09:33:47.133Z,30.03
2018-05-25T09:34:47.189Z,29.93
2018-05-25T09:35:47.198Z,29.85
2018-05-25T09:36:47.223Z,29.85
2018-05-25T09:37:47.275Z,29.95
2018-05-25T09:38:47.270Z,29.66
2018-05-25T09:39:47.300Z,29.95
2018-05-25T09:40:47.332Z,30.35
2018-05-25T09:41:47.372Z,29.77
2018-05-25T09:42:47.393Z,29.47
2018-05-25T09:43:47.413Z,29.28
2018-05-25T09:44:47.440Z,29.1
2018-05-25T09:45:47.475Z,28.71
2018-05-25T09:46:47.507Z,29
2018-05-25T09:47:47.516Z,28.52
2018-05-25T09:48:47.618Z,28.43
2018-05-25T09:49:47.590Z,27.93
2018-05-25T09:50:47.609Z,27.75
2018-05-25T09:51:47.631Z,27.94
2018-05-25T09:52:47.673Z,27.06
2018-05-25T09:53:47.692Z,27.26
2018-05-25T09:54:47.726Z,27.26
2018-05-25T09:55:47.766Z,27.26
2018-05-25T09:56:47.790Z,27.75
2018-05-25T09:57:47.531Z,27.26
2018-05-25T09:58:47.567Z,27.47
2018-05-25T09:59:47.872Z,27.66
2018-05-25T10:00:47.872Z,27.66
2018-05-25T10:01:47.904Z,27.19
2018-05-25T10:02:47.668Z,26.99
2018-05-25T10:03:47.694Z,26.6
2018-05-25T10:04:47.990Z,26.6
2018-05-25T10:05:48.030Z,26.79
2018-05-25T10:06:48.049Z,26.7
2018-05-25T10:07:48.097Z,26.7
2018-05-25T10:08:48.115Z,26.42
2018-05-25T10:09:48.156Z,26.22
2018-05-25T10:10:48.164Z,25.83
2018-05-25T10:11:48.201Z,25.73
2018-05-25T10:12:47.960Z,25.34
2018-05-25T10:13:48.250Z,25.34
2018-05-25T10:14:48.290Z,25.34
2018-05-25T10:15:48.040Z,25.55
2018-05-25T10:16:48.119Z,25.45
2018-05-25T10:17:48.114Z,25.45
2018-05-25T10:18:48.385Z,25.55
2018-05-25T10:19:48.153Z,25.45
2018-05-25T10:20:48.446Z,25.17
2018-05-25T10:21:48.206Z,24.97
2018-05-25T10:22:48.238Z,24.97
2018-05-25T10:23:48.542Z,24.97
2018-05-25T10:24:48.565Z,24.77
2018-05-25T10:25:48.597Z,24.3
2018-05-25T10:26:48.675Z,24.09
2018-05-25T10:27:48.378Z,24.2
2018-05-25T10:28:48.718Z,24.2
2018-05-25T10:29:48.726Z,24.59
2018-05-25T10:30:48.472Z,24.1
2018-05-25T10:31:48.568Z,24.4
2018-05-25T10:32:48.799Z,24.21
2018-05-25T10:33:48.829Z,24.21
2018-05-25T10:34:48.849Z,23.72
2018-05-25T10:35:48.626Z,23.33
2018-05-25T10:36:48.654Z,23.44
2018-05-25T10:37:48.959Z,23.05
2018-05-25T10:38:48.998Z,23.24
2018-05-25T10:39:49.022Z,23.24
2018-05-25T10:40:49.039Z,22.75
2018-05-25T10:41:48.801Z,23.14
2018-05-25T10:42:48.838Z,23.06
2018-05-25T10:43:49.123Z,23.45
2018-05-25T10:44:49.156Z,23.25
2018-05-25T10:45:49.194Z,22.47
2018-05-25T10:46:48.998Z,22.37
2018-05-25T10:47:49.261Z,22.38
2018-05-25T10:48:49.013Z,22.48
2018-05-25T10:49:49.320Z,22.3
2018-05-25T10:50:49.077Z,22.1
2018-05-25T10:51:49.386Z,21.9
2018-05-25T10:52:49.393Z,21.61
2018-05-25T10:53:49.163Z,21.22
2018-05-25T10:54:49.450Z,21.31
2018-05-25T10:55:49.509Z,21.12
2018-05-25T10:56:49.517Z,20.62
2018-05-25T10:57:49.287Z,20.73
2018-05-25T10:58:49.328Z,20.92
2018-05-25T10:59:49.610Z,20.72
2018-05-25T11:00:49.642Z,20.82
2018-05-25T11:01:49.673Z,20.33
2018-05-25T11:02:49.704Z,20.62
2018-05-25T11:03:49.818Z,20.44
2018-05-25T11:04:49.764Z,20.64
2018-05-25T11:05:49.797Z,19.56
2018-05-25T11:06:49.845Z,19.85
2018-05-25T11:07:49.851Z,19.95
2018-05-25T11:08:49.885Z,20.04
2018-05-25T11:09:49.656Z,19.75
2018-05-25T11:10:50.012Z,19.65
2018-05-25T11:11:50.011Z,19.56
2018-05-25T11:12:50.028Z,19.26
2018-05-25T11:13:50.045Z,18.87
2018-05-25T11:14:50.078Z,19.36
2018-05-25T11:15:50.105Z,19.56
2018-05-25T11:16:50.137Z,19.46
2018-05-25T11:17:50.160Z,19.46
2018-05-25T11:18:50.218Z,19.46
2018-05-25T11:19:50.246Z,19.56
2018-05-25T11:20:50.273Z,19.56
2018-05-25T11:21:50.298Z,19.46
2018-05-25T11:22:50.333Z,19.37
2018-05-25T11:23:50.352Z,19.56
2018-05-25T11:24:50.388Z,19.38
2018-05-25T11:25:50.417Z,18.39
2018-05-25T11:26:50.473Z,18.1
2018-05-25T11:27:50.489Z,17.71
2018-05-25T11:28:50.257Z,17.8
2018-05-25T11:29:50.561Z,17.8
2018-05-25T11:30:50.325Z,18
2018-05-25T11:31:50.620Z,17.9
2018-05-25T11:32:50.636Z,18.21
2018-05-25T11:33:50.675Z,17.91
2018-05-25T11:34:50.701Z,18.01
2018-05-25T11:35:50.734Z,18.11
2018-05-25T11:36:50.788Z,18.11
2018-05-25T11:37:50.812Z,18.01
2018-05-25T11:38:50.832Z,18.21
2018-05-25T11:39:50.865Z,18.02
2018-05-25T11:40:50.916Z,17.52
2018-05-25T11:41:50.939Z,17.52
2018-05-25T11:42:50.709Z,16.74
2018-05-25T11:43:50.996Z,16.93
2018-05-25T11:44:51.037Z,16.74
2018-05-25T11:45:51.074Z,16.93
2018-05-25T11:46:51.105Z,16.74
2018-05-25T11:47:50.868Z,16.35
2018-05-25T11:48:51.167Z,16.85
2018-05-25T11:49:51.203Z,16.45
2018-05-25T11:50:51.216Z,16.05
2018-05-25T11:51:51.245Z,15.86
2018-05-25T11:52:51.295Z,15.47
2018-05-25T11:53:51.066Z,14.78
2018-05-25T11:54:51.363Z,14.78
2018-05-25T11:55:51.386Z,14.69
2018-05-25T11:56:51.437Z,14.69
2018-05-25T11:57:51.184Z,14.69
2018-05-25T11:58:51.481Z,14.78
2018-05-25T11:59:51.260Z,14.79
2018-05-25T12:00:51.554Z,14.69
2018-05-25T12:01:51.634Z,14.79
2018-05-25T12:02:51.623Z,15.08
2018-05-25T12:03:51.656Z,15.08
2018-05-25T12:04:51.706Z,14.78
2018-05-25T12:05:51.732Z,14.78
2018-05-25T12:06:51.757Z,15.08
2018-05-25T12:07:51.793Z,14
2018-05-25T12:08:51.813Z,14.09
2018-05-25T12:09:51.851Z,13.89
2018-05-25T12:10:51.890Z,13.89
2018-05-25T12:11:51.651Z,13.7
2018-05-25T12:12:51.684Z,14.09
2018-05-25T12:13:51.699Z,14.19
2018-05-25T12:14:52.013Z,14.39
2018-05-25T12:15:52.050Z,14.39
2018-05-25T12:16:52.090Z,14.2
2018-05-25T12:17:52.118Z,13.7
2018-05-25T12:18:52.141Z,13.41
2018-05-25T12:19:52.181Z,13.41
2018-05-25T12:20:52.207Z,13.51
2018-05-25T12:21:52.256Z,13.6
2018-05-25T12:22:52.283Z,13.6
2018-05-25T12:23:52.063Z,13.7
2018-05-25T12:24:52.334Z,13.9
2018-05-25T12:25:52.374Z,13.91
2018-05-25T12:26:52.422Z,13.71
2018-05-25T12:27:52.506Z,13.32
2018-05-25T12:28:52.486Z,13.51
2018-05-25T12:29:52.233Z,13.02
2018-05-25T12:30:52.546Z,13.02
2018-05-25T12:31:52.566Z,12.83
2018-05-25T12:32:52.617Z,12.53
2018-05-25T12:33:52.373Z,12.63
2018-05-25T12:34:52.672Z,12.73
2018-05-25T12:35:52.724Z,12.34
2018-05-25T12:36:52.754Z,12.24
2018-05-25T12:37:52.832Z,12.24
2018-05-25T12:38:52.819Z,12.34
2018-05-25T12:39:52.858Z,12.54
2018-05-25T12:40:52.917Z,12.44
2018-05-25T12:41:52.638Z,12.65
2018-05-25T12:42:52.940Z,12.25
2018-05-25T12:43:52.973Z,11.95
2018-05-25T12:44:53.037Z,12.25
2018-05-25T12:45:53.047Z,12.15
2018-05-25T12:46:53.101Z,12.35
2018-05-25T12:47:52.890Z,12.05
2018-05-25T12:48:53.145Z,12.15
2018-05-25T12:49:52.924Z,11.96
2018-05-25T12:50:53.211Z,12.05
2018-05-25T12:51:53.253Z,11.55
2018-05-25T12:52:53.275Z,11.66
2018-05-25T12:53:53.321Z,11.66
2018-05-25T12:54:53.344Z,11.66
2018-05-25T12:55:53.385Z,11.86
2018-05-25T12:56:53.419Z,11.86
2018-05-25T12:57:53.515Z,12.05
2018-05-25T12:58:53.505Z,12.35